ROTM(METAR)
07/24 03:56
METAR ROTM 231856Z 16003KT 10SM FEW015 27/24 A2978 RMK AO2 SLP070
T02670244 $=
戻る
トップページへ戻る
IMOC Co,.Ltd.